Time;durP1;ratioP1;P1;durP2;ratioP2;P2;SDS_P1;SDS_P2;PMS_P1;PMS_P2;Temp;Humidity;BMP_temperature;BMP_pressure;BME280_temperature;BME280_humidity;BME280_pressure;Samples;Min_cycle;Max_cycle;Signal;HPM_P1;HPM_P2
2022/05/28 00:00:33;;;;;;;0.93;0.87;;;;;;;25.60;44.04;94873.78;5088667;28;20199;-64
2022/05/28 00:03:02;;;;;;;0.60;0.60;;;;;;;25.83;43.85;94874.66;5090132;28;20274;-63
2022/05/28 00:05:29;;;;;;;0.23;0.23;;;;;;;25.77;43.91;94870.66;5089818;28;20191;-63
2022/05/28 00:07:56;;;;;;;0.40;0.40;;;;;;;25.91;44.02;94868.31;5089583;28;20677;-63
2022/05/28 00:10:23;;;;;;;0.40;0.40;;;;;;;25.82;43.70;94875.78;5089405;28;20635;-63
2022/05/28 00:12:50;;;;;;;0.27;0.27;;;;;;;25.93;43.90;94863.34;5089665;28;20191;-63
2022/05/28 00:15:17;;;;;;;0.73;0.73;;;;;;;25.90;43.73;94858.69;5089519;28;20260;-64
2022/05/28 00:17:44;;;;;;;0.30;0.30;;;;;;;25.93;43.75;94864.13;5089699;28;20249;-63
2022/05/28 00:20:11;;;;;;;0.87;0.87;;;;;;;25.85;44.18;94861.66;5089151;28;20217;-64
2022/05/28 00:22:43;;;;;;;0.30;0.30;;;;;;;25.70;44.12;94859.78;5089305;28;20240;-63
2022/05/28 00:25:13;;;;;;;1.37;1.07;;;;;;;25.71;44.11;94834.53;5088923;28;20242;-61
2022/05/28 00:27:40;;;;;;;0.90;0.90;;;;;;;25.60;44.65;94852.31;5089387;28;20230;-64
2022/05/28 00:30:09;;;;;;;0.43;0.43;;;;;;;25.55;44.90;94856.03;5089290;28;20206;-64
2022/05/28 00:32:36;;;;;;;1.17;1.07;;;;;;;25.31;45.25;94848.16;5089376;28;20198;-62
2022/05/28 00:35:05;;;;;;;1.23;1.13;;;;;;;25.10;45.88;94823.56;5089461;28;20301;-64
2022/05/28 00:37:32;;;;;;;0.80;0.80;;;;;;;25.13;45.79;94838.94;5089392;28;20258;-64
2022/05/28 00:40:05;;;;;;;0.20;0.20;;;;;;;24.69;47.20;94832.09;5089152;28;20199;-62
2022/05/28 00:42:32;;;;;;;0.30;0.30;;;;;;;23.91;48.98;94830.03;5089501;28;20685;-64
2022/05/28 00:44:58;;;;;;;0.63;0.63;;;;;;;24.50;47.52;94821.28;5089000;28;20195;-63
2022/05/28 00:47:26;;;;;;;1.33;1.23;;;;;;;24.65;46.84;94826.63;5092755;28;20233;-65
2022/05/28 00:49:53;;;;;;;0.60;0.60;;;;;;;24.79;46.23;94813.63;5093232;28;20714;-63
2022/05/28 00:52:22;;;;;;;0.30;0.30;;;;;;;25.12;45.20;94823.19;5093314;28;20757;-67
2022/05/28 00:54:50;;;;;;;0.63;0.63;;;;;;;24.71;46.14;94822.63;5093273;28;20572;-63
2022/05/28 00:57:19;;;;;;;1.37;1.27;;;;;;;24.90;45.55;94820.03;5093174;28;20788;-63
2022/05/28 00:59:46;;;;;;;1.13;0.73;;;;;;;24.40;46.74;94809.16;5093367;28;20199;-63
2022/05/28 01:02:54;;;;;;;0.70;0.70;;;;;;;24.68;46.10;94804.53;5092900;28;20279;-62
2022/05/28 01:05:32;;;;;;;0.20;0.20;;;;;;;24.66;46.02;94819.38;5062940;28;20207;-64
2022/05/28 01:08:11;;;;;;;0.27;0.27;;;;;;;24.68;46.20;94835.91;5092834;28;20286;-63
2022/05/28 01:11:19;;;;;;;0.77;0.77;;;;;;;24.16;47.55;94844.09;5092709;28;20179;-64
2022/05/28 01:13:57;;;;;;;0.67;0.67;;;;;;;24.34;47.63;94845.38;5043353;28;20203;-63
2022/05/28 01:16:56;;;;;;;0.67;0.67;;;;;;;24.69;46.61;94848.94;5092955;28;20195;-63
2022/05/28 01:19:35;;;;;;;0.87;0.87;;;;;;;24.43;46.07;94848.69;5081353;28;20205;-64
2022/05/28 01:22:47;;;;;;;1.57;1.17;;;;;;;24.62;44.90;94847.97;5092961;28;20650;-62
2022/05/28 01:25:41;;;;;;;0.10;0.10;;;;;;;24.67;44.46;94856.53;5090391;28;20227;-62
2022/05/28 01:28:13;;;;;;;0.70;0.67;;;;;;;24.09;45.41;94913.50;5092487;28;20559;-64
2022/05/28 01:30:43;;;;;;;0.30;0.30;;;;;;;23.92;45.15;94916.44;5092619;28;20225;-65
2022/05/28 01:33:12;;;;;;;2.70;1.37;;;;;;;23.60;45.29;94910.13;5092525;28;20269;-65
2022/05/28 01:35:40;;;;;;;2.60;1.27;;;;;;;23.59;45.78;94913.16;5092675;28;20553;-63
2022/05/28 01:38:09;;;;;;;0.40;0.40;;;;;;;23.70;45.30;94908.91;5092543;28;20195;-64
2022/05/28 01:40:36;;;;;;;0.30;0.30;;;;;;;23.17;46.04;94906.47;5093238;28;20210;-63
2022/05/28 01:43:08;;;;;;;0.50;0.50;;;;;;;23.33;46.32;94904.69;5097538;28;20199;-64
2022/05/28 01:45:39;;;;;;;0.33;0.33;;;;;;;23.17;46.51;94909.13;5098702;28;20263;-63
2022/05/28 01:48:06;;;;;;;0.33;0.33;;;;;;;22.90;47.04;94903.31;5093900;28;20192;-64
2022/05/28 01:50:40;;;;;;;0.47;0.47;;;;;;;23.55;45.75;94896.22;5092546;28;20696;-64
2022/05/28 01:53:11;;;;;;;0.13;0.13;;;;;;;23.60;45.67;94890.63;5092799;28;20210;-64
2022/05/28 01:55:43;;;;;;;1.37;0.93;;;;;;;23.74;45.37;94915.91;5092754;28;20586;-64
2022/05/28 01:58:10;;;;;;;0.30;0.30;;;;;;;23.39;46.00;94906.03;5092824;28;20729;-63
2022/05/28 02:00:37;;;;;;;0.23;0.23;;;;;;;23.10;46.71;94905.09;5093692;28;20252;-65
2022/05/28 02:03:05;;;;;;;0.50;0.50;;;;;;;23.03;46.98;94912.13;5093703;28;20230;-64
2022/05/28 02:05:32;;;;;;;0.40;0.40;;;;;;;23.39;46.11;94900.69;5075695;28;20207;-63
2022/05/28 02:07:59;;;;;;;0.53;0.53;;;;;;;23.83;45.37;94908.53;5093271;28;20227;-62
2022/05/28 02:10:25;;;;;;;0.53;0.53;;;;;;;23.81;44.92;94905.41;5092634;28;20615;-63
2022/05/28 02:12:53;;;;;;;1.20;1.10;;;;;;;23.99;44.75;94901.38;5092677;28;20268;-63
2022/05/28 02:15:24;;;;;;;0.33;0.33;;;;;;;24.07;44.54;94899.69;5092009;28;20194;-63
2022/05/28 02:18:00;;;;;;;0.33;0.33;;;;;;;24.34;43.96;94906.97;5092238;28;20666;-63
2022/05/28 02:20:39;;;;;;;0.70;0.70;;;;;;;24.37;43.88;94911.63;5092098;28;20625;-63
2022/05/28 02:23:36;;;;;;;0.13;0.13;;;;;;;24.47;43.86;94908.44;5092031;28;20639;-62
2022/05/28 02:26:09;;;;;;;1.10;1.00;;;;;;;24.62;43.56;94902.34;5091768;28;20201;-63
2022/05/28 02:28:38;;;;;;;0.47;0.47;;;;;;;23.89;44.83;94890.34;5073960;28;20281;-62
2022/05/28 02:31:10;;;;;;;0.87;0.87;;;;;;;24.07;44.63;94888.97;5091956;28;20190;-62
2022/05/28 02:33:38;;;;;;;0.30;0.30;;;;;;;24.03;44.73;94888.88;5094567;28;20206;-62
2022/05/28 02:36:05;;;;;;;0.50;0.50;;;;;;;23.67;45.09;94877.47;5095728;28;20199;-63
2022/05/28 02:38:32;;;;;;;0.20;0.20;;;;;;;23.72;44.95;94891.38;5094083;28;20195;-64
2022/05/28 02:40:59;;;;;;;0.50;0.50;;;;;;;23.69;44.85;94891.28;5092087;28;20203;-64
2022/05/28 02:43:26;;;;;;;0.60;0.60;;;;;;;23.59;44.88;94897.09;5091658;28;20252;-65
2022/05/28 02:45:54;;;;;;;0.83;0.83;;;;;;;23.66;44.95;94878.59;5091433;28;21943;-64
2022/05/28 02:48:21;;;;;;;1.07;0.97;;;;;;;23.34;45.16;94895.56;5091506;28;20272;-64
2022/05/28 02:50:48;;;;;;;0.30;0.30;;;;;;;23.55;44.12;94870.25;5091720;28;20199;-64
2022/05/28 02:53:14;;;;;;;0.10;0.10;;;;;;;23.67;44.01;94861.41;5091741;28;20222;-63
2022/05/28 02:55:42;;;;;;;0.27;0.27;;;;;;;23.49;44.12;94865.47;5091346;28;20206;-64
2022/05/28 02:58:12;;;;;;;0.30;0.30;;;;;;;23.70;44.24;94871.44;5091278;28;20789;-64
2022/05/28 03:00:40;;;;;;;0.47;0.47;;;;;;;23.77;43.99;94868.97;5091217;28;20200;-63
2022/05/28 03:03:07;;;;;;;0.83;0.83;;;;;;;23.66;43.85;94876.69;5091152;28;20205;-64
2022/05/28 03:05:34;;;;;;;0.73;0.73;;;;;;;23.39;44.55;94884.66;5090547;28;20199;-63
2022/05/28 03:08:01;;;;;;;1.00;0.90;;;;;;;23.59;43.71;94889.09;5090655;28;20230;-62
2022/05/28 03:10:27;;;;;;;0.03;0.03;;;;;;;23.67;43.71;94882.81;5091251;28;20268;-63
2022/05/28 03:12:54;;;;;;;0.40;0.40;;;;;;;23.98;42.48;94873.03;5091148;28;20615;-65
2022/05/28 03:15:21;;;;;;;0.20;0.20;;;;;;;23.58;43.35;94874.91;5090855;28;20973;-63
2022/05/28 03:17:48;;;;;;;0.10;0.10;;;;;;;24.06;42.38;94874.06;5090902;28;20623;-63
2022/05/28 03:20:14;;;;;;;0.30;0.30;;;;;;;24.13;42.62;94868.09;5091073;28;20214;-63
2022/05/28 03:22:41;;;;;;;5.50;1.53;;;;;;;24.46;41.90;94876.66;5090828;28;20203;-64
2022/05/28 03:25:08;;;;;;;0.30;0.30;;;;;;;24.83;41.38;94873.47;5090515;28;20227;-64
2022/05/28 03:27:35;;;;;;;0.73;0.73;;;;;;;24.69;40.87;94889.13;5090584;28;20219;-64
2022/05/28 03:30:03;;;;;;;0.30;0.30;;;;;;;24.58;40.92;94882.72;5090819;28;20187;-62
2022/05/28 03:32:30;;;;;;;0.60;0.60;;;;;;;23.97;42.57;94876.84;5090914;28;20187;-64
2022/05/28 03:34:57;;;;;;;0.10;0.10;;;;;;;23.93;42.19;94878.63;5090499;28;20219;-65
2022/05/28 03:37:23;;;;;;;0.83;0.83;;;;;;;24.08;42.20;94872.59;5090433;28;20195;-64
2022/05/28 03:39:50;;;;;;;2.00;1.57;;;;;;;24.40;41.96;94872.66;5090815;28;20192;-64
2022/05/28 03:42:17;;;;;;;0.20;0.20;;;;;;;24.74;41.98;94862.13;5090512;28;20183;-62
2022/05/28 03:44:44;;;;;;;0.30;0.30;;;;;;;24.79;42.14;94869.91;5095811;28;20643;-63
2022/05/28 03:47:11;;;;;;;0.10;0.10;;;;;;;24.79;42.21;94861.88;5094480;28;20215;-62
2022/05/28 03:49:40;;;;;;;0.30;0.30;;;;;;;25.07;41.66;94869.84;5095973;28;20244;-64
2022/05/28 03:52:07;;;;;;;0.20;0.20;;;;;;;24.78;42.14;94857.63;5103674;28;20202;-63
2022/05/28 03:54:34;;;;;;;0.73;0.37;;;;;;;25.02;41.70;94857.47;5095496;28;20191;-63
2022/05/28 03:57:07;;;;;;;0.37;0.30;;;;;;;25.08;41.50;94853.41;5090151;28;20268;-62
2022/05/28 03:59:34;;;;;;;1.70;1.40;;;;;;;25.17;41.53;94845.16;5090964;28;20195;-64
2022/05/28 04:02:01;;;;;;;0.50;0.50;;;;;;;25.31;41.72;94847.41;5089383;28;20662;-63
2022/05/28 04:04:29;;;;;;;0.43;0.43;;;;;;;25.24;42.40;94849.91;5089864;28;20237;-62
2022/05/28 04:06:58;;;;;;;0.80;0.70;;;;;;;25.27;42.64;94846.53;5090304;28;20215;-61
2022/05/28 04:09:25;;;;;;;0.10;0.10;;;;;;;25.30;42.01;94835.09;5090115;28;20195;-62
2022/05/28 04:11:52;;;;;;;0.63;0.50;;;;;;;25.29;41.49;94837.00;5089314;28;20190;-62
2022/05/28 04:14:19;;;;;;;0.67;0.67;;;;;;;25.32;41.57;94827.50;5089469;28;20202;-62
2022/05/28 04:16:45;;;;;;;0.60;0.60;;;;;;;25.42;41.61;94827.00;5089893;28;20245;-62
2022/05/28 04:19:12;;;;;;;0.33;0.33;;;;;;;25.35;42.61;94838.28;5089850;28;20191;-61
2022/05/28 04:21:39;;;;;;;0.63;0.63;;;;;;;25.41;42.67;94838.84;5089452;28;20203;-62
2022/05/28 04:24:06;;;;;;;1.63;1.53;;;;;;;25.51;42.88;94851.72;5089598;28;20235;-62
2022/05/28 04:26:33;;;;;;;0.40;0.40;;;;;;;25.41;41.88;94869.13;5089643;28;20270;-62
2022/05/28 04:29:00;;;;;;;0.67;0.67;;;;;;;25.16;41.29;94909.88;5089458;28;20623;-61
2022/05/28 04:31:27;;;;;;;0.60;0.60;;;;;;;24.64;43.50;94953.72;5090282;28;20226;-61
2022/05/28 04:33:54;;;;;;;0.63;0.63;;;;;;;24.90;42.90;94929.94;5088888;28;20199;-62
2022/05/28 04:36:21;;;;;;;0.10;0.10;;;;;;;24.55;43.27;94883.41;5089040;28;20690;-62
2022/05/28 04:38:48;;;;;;;0.33;0.33;;;;;;;24.28;43.37;94837.91;5090019;28;20187;-64
2022/05/28 04:41:15;;;;;;;1.63;0.80;;;;;;;24.13;43.68;94809.19;5090090;28;20199;-63
2022/05/28 04:43:42;;;;;;;0.30;0.30;;;;;;;24.39;43.81;94812.19;5089259;28;20202;-64
2022/05/28 04:46:09;;;;;;;0.87;0.30;;;;;;;24.31;45.46;94827.28;5089856;28;20187;-66
2022/05/28 04:48:36;;;;;;;0.10;0.10;;;;;;;24.73;44.20;94865.13;5072203;28;20227;-66
2022/05/28 04:51:03;;;;;;;2.00;1.27;;;;;;;23.91;46.50;94885.44;5089929;28;20191;-66
2022/05/28 04:53:30;;;;;;;0.40;0.40;;;;;;;23.66;47.87;94892.75;5089726;28;20213;-67
2022/05/28 04:55:57;;;;;;;0.23;0.23;;;;;;;23.21;50.16;94891.31;5089649;28;20191;-67
2022/05/28 04:58:24;;;;;;;0.30;0.30;;;;;;;23.46;49.57;94892.88;5089984;28;20196;-66
2022/05/28 05:00:52;;;;;;;0.53;0.53;;;;;;;22.80;50.36;94901.06;5089624;28;20187;-68
2022/05/28 05:03:19;;;;;;;0.20;0.20;;;;;;;23.08;50.30;94901.97;5089788;28;20708;-67
2022/05/28 05:05:46;;;;;;;0.30;0.30;;;;;;;22.56;51.65;94898.34;5089437;28;20192;-66
2022/05/28 05:08:13;;;;;;;0.17;0.17;;;;;;;22.71;51.45;94911.09;5089632;28;20215;-66
2022/05/28 05:10:40;;;;;;;1.33;0.93;;;;;;;23.58;49.19;94907.03;5089673;28;20199;-66
2022/05/28 05:13:07;;;;;;;0.10;0.10;;;;;;;23.11;50.41;94914.69;5089884;28;20195;-65
2022/05/28 05:15:34;;;;;;;0.40;0.40;;;;;;;22.61;53.40;94922.16;5093526;28;20203;-65
2022/05/28 05:18:00;;;;;;;0.20;0.20;;;;;;;21.90;54.53;94926.84;5091791;28;20570;-65
2022/05/28 05:20:27;;;;;;;0.73;0.73;;;;;;;22.53;53.39;94909.66;5089503;28;20194;-67
2022/05/28 05:22:55;;;;;;;2.70;0.67;;;;;;;23.12;51.39;94905.56;5089279;28;20674;-66
2022/05/28 05:25:22;;;;;;;1.17;0.63;;;;;;;23.41;50.87;94887.78;5089516;28;20223;-68
2022/05/28 05:27:49;;;;;;;0.80;0.80;;;;;;;23.70;50.01;94903.56;5089861;28;20222;-67
2022/05/28 05:30:16;;;;;;;0.90;0.90;;;;;;;23.97;49.34;94898.25;5089540;28;20291;-65
2022/05/28 05:32:43;;;;;;;0.60;0.60;;;;;;;23.75;50.11;94908.66;5091862;28;20210;-66
2022/05/28 05:35:10;;;;;;;12.93;3.20;;;;;;;23.40;51.34;94921.75;5093349;28;20226;-66
2022/05/28 05:37:37;;;;;;;0.90;0.90;;;;;;;22.99;52.27;94928.03;5093118;28;20233;-67
2022/05/28 05:40:05;;;;;;;0.67;0.67;;;;;;;23.00;52.62;94934.97;5092926;28;20187;-67
2022/05/28 05:42:32;;;;;;;1.63;1.17;;;;;;;23.60;50.73;94931.53;5093142;28;20195;-65
2022/05/28 05:44:58;;;;;;;0.80;0.80;;;;;;;23.56;51.50;94919.94;5093041;28;20203;-66
2022/05/28 05:47:25;;;;;;;0.50;0.50;;;;;;;23.17;52.21;94934.72;5092970;28;20635;-65
2022/05/28 05:49:52;;;;;;;0.97;0.97;;;;;;;23.46;51.35;94911.59;5093234;28;20199;-66
2022/05/28 05:52:19;;;;;;;0.20;0.20;;;;;;;23.62;51.24;94907.13;5096214;28;20191;-65
2022/05/28 05:54:51;;;;;;;0.47;0.47;;;;;;;24.13;50.22;94910.94;5093969;28;20724;-66
2022/05/28 05:57:18;;;;;;;0.20;0.20;;;;;;;24.29;50.31;94903.75;5092802;28;20240;-66
2022/05/28 05:59:45;;;;;;;1.17;1.17;;;;;;;24.69;50.31;94905.22;5092672;28;20289;-66
2022/05/28 06:02:12;;;;;;;2.83;1.20;;;;;;;24.14;52.48;94910.63;5092747;28;20199;-66
2022/05/28 06:04:40;;;;;;;1.23;0.83;;;;;;;24.22;51.79;94895.50;5092439;28;20673;-66
2022/05/28 06:07:07;;;;;;;0.60;0.60;;;;;;;24.71;51.34;94894.97;5092931;28;20203;-65
2022/05/28 06:09:34;;;;;;;1.80;1.43;;;;;;;24.58;50.81;94888.09;5074162;28;20202;-66
2022/05/28 06:12:02;;;;;;;1.37;1.27;;;;;;;25.04;49.47;94879.34;5092241;28;20211;-65
2022/05/28 06:14:28;;;;;;;1.70;0.73;;;;;;;24.57;49.33;94877.72;5092499;28;20199;-65
2022/05/28 06:16:55;;;;;;;1.33;1.23;;;;;;;24.54;48.67;94876.50;5092376;28;20226;-65
2022/05/28 06:19:22;;;;;;;24.43;2.87;;;;;;;24.58;48.48;94866.66;5092050;28;20190;-67
2022/05/28 06:21:49;;;;;;;0.50;0.50;;;;;;;24.57;48.77;94867.78;5092263;28;20207;-65
2022/05/28 06:24:16;;;;;;;0.87;0.83;;;;;;;24.70;48.28;94871.97;5091644;28;20272;-65
2022/05/28 06:26:43;;;;;;;0.17;0.17;;;;;;;24.49;48.64;94866.03;5091907;28;20203;-64
2022/05/28 06:29:10;;;;;;;3.83;0.90;;;;;;;24.45;49.52;94865.16;5091650;28;20246;-64
2022/05/28 06:31:36;;;;;;;0.40;0.40;;;;;;;24.73;49.29;94871.28;5092160;28;20571;-64
2022/05/28 06:34:04;;;;;;;0.73;0.73;;;;;;;25.01;49.03;94863.16;5091751;28;20225;-65
2022/05/28 06:36:31;;;;;;;0.33;0.33;;;;;;;24.93;49.34;94862.22;5092098;28;20560;-66
2022/05/28 06:38:58;;;;;;;0.43;0.43;;;;;;;25.61;47.96;94861.88;5092124;28;20211;-64
2022/05/28 06:41:25;;;;;;;0.50;0.50;;;;;;;25.62;48.57;94848.13;5091429;28;20179;-65
2022/05/28 06:43:52;;;;;;;1.73;1.50;;;;;;;25.98;48.16;94846.97;5091478;28;20245;-65
2022/05/28 06:46:19;;;;;;;0.20;0.20;;;;;;;26.06;49.45;94839.88;5098885;28;20198;-65
2022/05/28 06:48:47;;;;;;;0.40;0.40;;;;;;;26.42;48.00;94840.16;5112023;28;20332;-64
2022/05/28 06:51:13;;;;;;;0.50;0.50;;;;;;;26.64;47.44;94823.28;5112133;28;20182;-65
2022/05/28 06:53:45;;;;;;;1.97;1.87;;;;;;;26.36;47.47;94822.78;5111804;28;20256;-65
2022/05/28 06:56:13;;;;;;;0.50;0.50;;;;;;;26.63;45.78;94820.94;5111846;28;20202;-66
2022/05/28 06:58:40;;;;;;;0.33;0.33;;;;;;;26.55;45.39;94820.03;5111991;28;20201;-65
2022/05/28 07:01:09;;;;;;;4.47;1.80;;;;;;;26.52;44.43;94799.28;5111753;28;20587;-65
2022/05/28 07:03:39;;;;;;;0.53;0.53;;;;;;;26.66;44.40;94821.00;5111055;28;20191;-64
2022/05/28 07:06:06;;;;;;;0.20;0.20;;;;;;;26.79;44.28;94813.56;5112060;28;20182;-64
2022/05/28 07:08:33;;;;;;;0.70;0.70;;;;;;;26.87;44.91;94810.66;5112873;28;20761;-65
2022/05/28 07:11:02;;;;;;;0.33;0.33;;;;;;;26.26;43.60;94801.88;5113361;28;20197;-65
2022/05/28 07:13:30;;;;;;;0.43;0.43;;;;;;;26.03;45.17;94799.13;5113133;28;20206;-67
2022/05/28 07:15:57;;;;;;;0.57;0.57;;;;;;;26.43;44.34;94790.66;5113852;28;20194;-65
2022/05/28 07:18:24;;;;;;;0.37;0.37;;;;;;;26.57;44.69;94795.53;5111693;28;20255;-69
2022/05/28 07:20:52;;;;;;;2.93;2.73;;;;;;;26.72;44.52;94792.72;5111208;28;20789;-67
2022/05/28 07:23:22;;;;;;;3.03;2.43;;;;;;;26.94;44.13;94791.94;5111178;28;20178;-65
2022/05/28 07:25:56;;;;;;;2.03;1.93;;;;;;;27.28;43.59;94789.38;5111138;28;20665;-66
2022/05/28 07:28:27;;;;;;;0.40;0.40;;;;;;;27.33;45.53;94789.06;5110763;28;20224;-68
2022/05/28 07:31:10;;;;;;;9.00;8.10;;;;;;;27.70;43.63;94779.19;5111266;28;20205;-69
2022/05/28 07:33:40;;;;;;;3.83;3.53;;;;;;;27.69;43.63;94774.94;5111221;28;20194;-67
2022/05/28 07:36:10;;;;;;;1.53;1.43;;;;;;;27.80;43.21;94770.47;5111240;28;20506;-66
2022/05/28 07:38:39;;;;;;;0.80;0.80;;;;;;;28.21;42.27;94774.78;5111282;28;20194;-65
2022/05/28 07:41:09;;;;;;;0.50;0.50;;;;;;;27.92;41.80;94767.50;5092912;28;20198;-65
2022/05/28 07:43:36;;;;;;;0.30;0.30;;;;;;;28.11;41.68;94769.28;5111443;28;20198;-68
2022/05/28 07:46:10;;;;;;;0.50;0.50;;;;;;;28.36;42.31;94773.78;5111111;28;20194;-67
2022/05/28 07:48:37;;;;;;;0.47;0.47;;;;;;;28.22;40.68;94773.66;5093165;28;20202;-66
2022/05/28 07:51:06;;;;;;;2.57;0.97;;;;;;;27.54;41.04;94762.44;5092919;28;20281;-68
2022/05/28 07:53:33;;;;;;;0.30;0.30;;;;;;;28.08;40.93;94765.44;5109572;28;20198;-68
2022/05/28 07:56:02;;;;;;;5.53;3.43;;;;;;;28.79;39.78;94769.59;5109842;28;20259;-67
2022/05/28 07:58:29;;;;;;;1.40;1.30;;;;;;;28.30;39.87;94767.19;5110138;28;20195;-69
2022/05/28 08:00:56;;;;;;;0.40;0.40;;;;;;;28.33;38.66;94761.06;5109717;28;20251;-68
2022/05/28 08:03:23;;;;;;;0.90;0.90;;;;;;;28.50;38.84;94749.66;5109905;28;20249;-67
2022/05/28 08:05:52;;;;;;;3.20;3.00;;;;;;;28.48;38.44;94751.19;5109322;28;20198;-72
2022/05/28 08:08:21;;;;;;;4.67;2.37;;;;;;;28.51;37.18;94751.22;5109664;28;20226;-66
2022/05/28 08:10:49;;;;;;;0.43;0.43;;;;;;;28.44;38.19;94743.06;5109711;28;20187;-67
2022/05/28 08:13:19;;;;;;;1.17;1.17;;;;;;;28.87;36.29;94736.91;5110244;28;20320;-69
2022/05/28 08:15:48;;;;;;;0.30;0.30;;;;;;;28.83;37.50;94738.78;5110485;28;20186;-69
2022/05/28 08:18:18;;;;;;;0.47;0.47;;;;;;;28.81;37.04;94733.00;5110156;28;20241;-67
2022/05/28 08:23:30;;;;;;;3.27;1.43;;;;;;;28.57;35.22;94733.59;5110111;28;20292;-67
2022/05/28 08:25:57;;;;;;;1.80;1.17;;;;;;;28.83;36.39;94729.94;5110328;28;20202;-67
2022/05/28 08:28:24;;;;;;;0.40;0.40;;;;;;;29.26;36.03;94741.78;5110019;28;20222;-69
2022/05/28 08:30:51;;;;;;;0.30;0.30;;;;;;;29.31;35.72;94738.72;5110171;28;20201;-69
2022/05/28 08:33:19;;;;;;;1.70;1.60;;;;;;;29.35;34.60;94734.13;5109847;28;20225;-69
2022/05/28 08:35:47;;;;;;;4.00;2.20;;;;;;;29.25;35.19;94724.06;5109844;28;20202;-68
2022/05/28 08:38:17;;;;;;;0.70;0.70;;;;;;;29.41;35.54;94728.00;5110105;28;20206;-70
2022/05/28 08:40:57;;;;;;;2.33;1.50;;;;;;;29.45;35.55;94720.69;5110176;28;20182;-68
2022/05/28 08:43:28;;;;;;;0.30;0.30;;;;;;;29.78;34.34;94735.91;5109955;28;20205;-69
2022/05/28 08:45:55;;;;;;;2.70;1.67;;;;;;;29.90;35.81;94735.56;5109950;28;20247;-70
2022/05/28 08:48:45;;;;;;;1.90;1.17;;;;;;;29.55;35.32;94719.19;5113680;28;20210;-69
2022/05/28 08:51:35;;;;;;;0.20;0.20;;;;;;;29.86;34.87;94716.63;5111379;28;20186;-70
2022/05/28 08:54:39;;;;;;;0.83;0.67;;;;;;;30.57;34.01;94725.66;5109801;28;20733;-69
2022/05/28 08:57:17;;;;;;;1.70;1.20;;;;;;;30.29;34.70;94725.63;5110019;28;20206;-68
2022/05/28 08:59:54;;;;;;;9.63;1.13;;;;;;;30.52;34.50;94722.56;5109842;28;20939;-69
2022/05/28 09:02:41;;;;;;;1.80;1.03;;;;;;;30.42;35.60;94721.41;5109991;28;20287;-68
2022/05/28 09:05:22;;;;;;;0.50;0.43;;;;;;;30.31;35.40;94719.88;5109902;28;20179;-69
2022/05/28 09:07:51;;;;;;;6.77;1.37;;;;;;;29.68;35.95;94720.41;5112303;28;20224;-63
2022/05/28 09:10:18;;;;;;;3.43;2.07;;;;;;;30.24;35.37;94719.78;5113743;28;20198;-68
2022/05/28 09:13:09;;;;;;;6.33;3.40;;;;;;;30.87;34.27;94709.06;5113957;28;20214;-66
2022/05/28 09:15:37;;;;;;;0.87;0.87;;;;;;;30.95;33.94;94715.25;5114227;28;20209;-68
2022/05/28 09:18:06;;;;;;;2.17;1.17;;;;;;;30.68;35.09;94707.50;5114871;28;20330;-64
2022/05/28 09:20:39;;;;;;;0.63;0.63;;;;;;;30.79;34.21;94707.50;5113646;28;20199;-68
2022/05/28 09:23:06;;;;;;;0.47;0.47;;;;;;;30.73;35.80;94699.00;5113810;28;20206;-64
2022/05/28 09:25:37;;;;;;;1.47;0.83;;;;;;;30.16;35.89;94693.94;5091603;28;20273;-66
2022/05/28 09:28:41;;;;;;;0.33;0.33;;;;;;;30.21;36.21;94688.91;5093263;28;20272;-65
2022/05/28 09:31:30;;;;;;;2.73;1.97;;;;;;;30.67;35.22;94687.03;5092712;28;20202;-71
2022/05/28 09:34:17;;;;;;;1.33;1.23;;;;;;;30.98;34.27;94687.41;5077721;28;20667;-67
2022/05/28 09:37:03;;;;;;;2.17;1.97;;;;;;;31.10;35.11;94684.28;5072336;28;20215;-67
2022/05/28 09:39:54;;;;;;;1.47;1.33;;;;;;;31.44;34.41;94671.84;5070880;28;20183;-72
2022/05/28 09:42:30;;;;;;;9.27;1.53;;;;;;;30.62;33.45;94683.94;5072510;28;20188;-73
2022/05/28 09:45:00;;;;;;;1.17;0.50;;;;;;;30.42;34.13;94683.53;5072811;28;20653;-65
2022/05/28 09:47:48;;;;;;;0.23;0.23;;;;;;;30.27;33.77;94652.28;5072268;28;20260;-69
2022/05/28 09:50:40;;;;;;;0.20;0.20;;;;;;;31.05;34.28;94665.72;5074481;28;20187;-66
2022/05/28 09:56:13;;;;;;;1.43;1.33;;;;;;;31.77;32.85;94657.72;5092753;28;20203;-66
2022/05/28 09:58:41;;;;;;;0.77;0.70;;;;;;;31.74;33.90;94643.06;5092721;28;20190;-69
2022/05/28 10:01:19;;;;;;;5.37;4.40;;;;;;;31.77;33.11;94626.00;5092666;28;20179;-66
2022/05/28 10:06:34;;;;;;;0.80;0.80;;;;;;;31.10;33.75;94647.16;5084529;28;20188;-69
2022/05/28 10:09:32;;;;;;;0.90;0.90;;;;;;;30.82;33.36;94653.41;5084454;28;20272;-65
2022/05/28 10:12:14;;;;;;;0.60;0.60;;;;;;;30.86;34.04;94643.34;5071427;28;20199;-65
2022/05/28 10:14:41;;;;;;;0.50;0.50;;;;;;;30.79;33.97;94637.94;5071610;28;20298;-66
2022/05/28 10:17:08;;;;;;;0.33;0.33;;;;;;;31.07;34.35;94639.06;5071305;28;20631;-66
2022/05/28 10:19:42;;;;;;;2.90;1.40;;;;;;;31.23;34.74;94639.38;5071990;28;20226;-67
2022/05/28 10:22:17;;;;;;;1.23;0.97;;;;;;;31.30;34.24;94634.72;5071475;28;20680;-64
2022/05/28 10:24:55;;;;;;;0.40;0.40;;;;;;;31.05;33.80;94633.25;5082481;28;20222;-65
2022/05/28 10:27:40;;;;;;;0.57;0.57;;;;;;;31.06;34.08;94626.69;5092383;28;20367;-65
2022/05/28 10:30:22;;;;;;;3.73;1.90;;;;;;;31.09;34.62;94623.19;5091722;28;20230;-65
2022/05/28 10:32:51;;;;;;;3.80;1.10;;;;;;;31.28;34.01;94611.91;5091740;28;20571;-65
2022/05/28 10:35:26;;;;;;;0.90;0.83;;;;;;;31.34;34.73;94618.47;5092011;28;20625;-66
2022/05/28 10:38:09;;;;;;;0.60;0.60;;;;;;;31.50;34.26;94616.09;5091482;28;20724;-64
2022/05/28 10:40:47;;;;;;;0.20;0.20;;;;;;;30.66;34.65;94617.06;5091525;28;20191;-65
2022/05/28 10:43:30;;;;;;;0.40;0.40;;;;;;;31.56;34.00;94612.59;5091786;28;20187;-65
2022/05/28 10:46:21;;;;;;;2.87;1.03;;;;;;;31.27;34.75;94608.44;5091723;28;20658;-66
2022/05/28 10:48:58;;;;;;;0.20;0.20;;;;;;;31.53;34.53;94615.31;5091265;28;20207;-65
2022/05/28 10:51:48;;;;;;;1.07;0.67;;;;;;;31.88;33.43;94612.38;5091500;28;20648;-66
2022/05/28 10:54:49;;;;;;;2.17;0.57;;;;;;;31.75;32.09;94605.91;5061527;28;20207;-64
2022/05/28 10:57:33;;;;;;;0.30;0.30;;;;;;;31.20;31.81;94613.09;5091524;28;20194;-65
2022/05/28 11:00:13;;;;;;;1.10;1.03;;;;;;;31.69;31.24;94612.91;5091672;28;20195;-64
2022/05/28 11:03:34;;;;;;;3.23;2.67;;;;;;;32.80;31.07;94605.09;5091253;28;20324;-64
2022/05/28 11:06:09;;;;;;;1.50;1.37;;;;;;;33.09;31.18;94605.56;5028871;28;20220;-66
2022/05/28 11:08:57;;;;;;;3.00;2.17;;;;;;;33.34;30.34;94594.44;5082373;28;20221;-64
2022/05/28 11:11:34;;;;;;;2.17;1.70;;;;;;;33.04;30.22;94592.44;5091345;28;20202;-67
2022/05/28 11:14:28;;;;;;;0.70;0.67;;;;;;;32.72;30.22;94587.31;5091317;28;20191;-65
2022/05/28 11:17:23;;;;;;;5.60;1.23;;;;;;;32.86;29.12;94574.78;5090867;28;20298;-65
2022/05/28 11:20:17;;;;;;;1.77;1.37;;;;;;;32.83;30.09;94582.56;5090978;28;20322;-65
2022/05/28 11:23:21;;;;;;;1.43;0.97;;;;;;;33.01;30.14;94565.34;5091044;28;20207;-65
2022/05/28 11:26:18;;;;;;;2.13;0.93;;;;;;;32.14;31.32;94568.47;5050593;28;20211;-65
2022/05/28 11:29:18;;;;;;;0.53;0.53;;;;;;;31.54;31.84;94559.97;5050586;28;20259;-66
2022/05/28 11:31:55;;;;;;;0.67;0.40;;;;;;;31.98;31.09;94554.66;5033241;28;20199;-67
2022/05/28 11:34:30;;;;;;;1.70;0.83;;;;;;;32.61;30.72;94558.75;5050597;28;20200;-66
2022/05/28 11:37:23;;;;;;;0.40;0.40;;;;;;;32.45;29.70;94551.16;5050755;28;20305;-66
2022/05/28 11:40:06;;;;;;;0.30;0.30;;;;;;;32.31;29.87;94545.88;5050564;28;20598;-67
2022/05/28 11:42:47;;;;;;;0.60;0.60;;;;;;;32.11;30.42;94547.59;5050621;28;20307;-65
2022/05/28 11:45:47;;;;;;;2.40;1.33;;;;;;;31.84;30.47;94549.31;5050310;28;20224;-66
2022/05/28 11:51:27;;;;;;;0.43;0.43;;;;;;;32.11;31.03;94546.81;5042733;28;20630;-65
2022/05/28 11:51:28;;;;;;;0.53;0.53;;;;;;;31.38;30.68;94540.72;5050332;28;20184;-65
2022/05/28 11:54:06;;;;;;;1.10;1.00;;;;;;;31.61;31.17;94547.16;5050087;28;20232;-65
2022/05/28 11:56:34;;;;;;;0.60;0.60;;;;;;;31.63;30.50;94538.63;5050344;28;20203;-67
2022/05/28 11:59:07;;;;;;;0.63;0.63;;;;;;;31.75;31.55;94540.88;5050002;28;20195;-67
2022/05/28 12:01:44;;;;;;;0.30;0.30;;;;;;;31.54;32.35;94541.78;5050099;28;20667;-66
2022/05/28 12:04:12;;;;;;;2.03;1.03;;;;;;;31.37;32.35;94531.06;5050377;28;20235;-64
2022/05/28 12:06:48;;;;;;;1.90;1.53;;;;;;;31.42;31.98;94534.09;5050074;28;20196;-67